Aviation Digital Data Service (ADDS)

Output produced by TAFs form (0957 UTC 23 April 2017)
found at http://www.aviationweather.gov/adds/tafs/
 
METAR text: RJBT 230900Z 36007KT CAVOK 12/12 Q1019
Conditions at: RJBT (TAJIMA , JP) observed 0900 UTC 23 April 2017
Temperature: 12.0°C (54°F)
Dewpoint: 12.0°C (54°F) [RH = 100%]
Pressure (altimeter): 30.09 inches Hg (1019.0 mb)
Winds: from the N (360 degrees) at 8 MPH (7 knots; 3.6 m/s)
Visibility: 6 or more miles (10+ km)
Ceiling: ceiling and visibility are OK
Clouds: unknown
Weather: no significant weather observed at this time